createdAt,value
2022-08-28T00:01:28.476Z,99.90
2022-08-28T00:03:57.092Z,99.90
2022-08-28T00:06:24.677Z,99.90
2022-08-28T00:08:52.241Z,99.90
2022-08-28T00:11:19.835Z,99.90
2022-08-28T00:13:48.206Z,99.90
2022-08-28T00:16:15.833Z,99.90
2022-08-28T00:18:44.147Z,99.90
2022-08-28T00:21:12.489Z,99.90
2022-08-28T00:23:42.707Z,99.90
2022-08-28T00:26:07.717Z,99.90
2022-08-28T00:28:35.309Z,99.90
2022-08-28T00:31:03.702Z,99.90
2022-08-28T00:33:31.285Z,99.90
2022-08-28T00:35:58.869Z,99.90
2022-08-28T00:38:26.462Z,99.90
2022-08-28T00:40:54.080Z,99.90
2022-08-28T00:43:36.780Z,99.90
2022-08-28T00:46:04.435Z,99.90
2022-08-28T00:48:31.962Z,99.90
2022-08-28T00:51:18.500Z,99.90
2022-08-28T00:53:46.074Z,99.90
2022-08-28T00:56:13.648Z,99.90
2022-08-28T00:58:41.246Z,99.90
2022-08-28T01:01:09.584Z,99.90
2022-08-28T01:03:37.188Z,99.90
2022-08-28T01:06:04.762Z,99.90
2022-08-28T01:08:32.387Z,99.90
2022-08-28T01:10:59.940Z,99.90
2022-08-28T01:13:27.540Z,99.90
2022-08-28T01:15:55.939Z,99.90
2022-08-28T01:18:23.456Z,99.90
2022-08-28T01:21:20.534Z,99.90
2022-08-28T01:23:58.600Z,99.90
2022-08-28T01:26:26.244Z,99.90
2022-08-28T01:28:53.827Z,99.90
2022-08-28T01:31:21.506Z,99.90
2022-08-28T01:33:49.754Z,99.90
2022-08-28T01:36:17.345Z,99.90
2022-08-28T01:38:45.679Z,99.90
2022-08-28T01:41:13.284Z,99.90
2022-08-28T01:43:41.625Z,99.90
2022-08-28T01:46:09.252Z,99.90
2022-08-28T01:48:36.792Z,99.90
2022-08-28T01:51:04.406Z,99.90
2022-08-28T01:53:33.094Z,99.90
2022-08-28T01:55:59.575Z,99.90
2022-08-28T01:58:27.158Z,99.90
2022-08-28T02:00:54.733Z,99.90
2022-08-28T02:03:22.327Z,99.90
2022-08-28T02:05:50.678Z,99.90
2022-08-28T02:08:18.306Z,99.90
2022-08-28T02:10:46.210Z,99.90
2022-08-28T02:13:13.825Z,99.90
2022-08-28T02:15:41.413Z,99.90
2022-08-28T02:18:09.875Z,99.90
2022-08-28T02:20:38.072Z,99.90
2022-08-28T02:23:05.648Z,99.90
2022-08-28T02:25:33.242Z,99.90
2022-08-28T02:28:00.825Z,99.90
2022-08-28T02:30:28.409Z,99.90
2022-08-28T02:32:56.288Z,99.90
2022-08-28T02:35:23.874Z,99.90
2022-08-28T02:37:52.205Z,99.90
2022-08-28T02:40:19.853Z,99.90
2022-08-28T02:42:48.160Z,99.90
2022-08-28T02:45:15.744Z,99.90
2022-08-28T02:47:44.116Z,99.90
2022-08-28T02:50:11.689Z,99.90
2022-08-28T02:52:40.541Z,99.90
2022-08-28T02:55:07.842Z,99.90
2022-08-28T02:57:35.426Z,99.90
2022-08-28T03:00:03.002Z,99.90
2022-08-28T03:02:30.627Z,99.90
2022-08-28T03:04:58.179Z,99.90
2022-08-28T03:07:26.521Z,99.90
2022-08-28T03:10:07.249Z,99.90
2022-08-28T03:12:34.834Z,99.90
2022-08-28T03:15:02.407Z,99.90
2022-08-28T03:17:30.986Z,99.90
2022-08-28T03:19:58.569Z,99.90
2022-08-28T03:22:45.334Z,99.90
2022-08-28T03:25:12.928Z,99.90
2022-08-28T03:27:40.504Z,99.90
2022-08-28T03:30:08.925Z,99.90
2022-08-28T03:32:36.503Z,99.90
2022-08-28T03:35:04.071Z,99.90
2022-08-28T03:37:31.704Z,99.90
2022-08-28T03:39:59.300Z,99.90
2022-08-28T03:42:26.844Z,99.90
2022-08-28T03:44:54.436Z,99.90
2022-08-28T03:47:22.780Z,99.90
2022-08-28T03:49:50.353Z,99.90
2022-08-28T03:52:17.948Z,99.90
2022-08-28T03:54:46.299Z,99.90
2022-08-28T03:57:13.873Z,99.90
2022-08-28T03:59:42.236Z,99.90
2022-08-28T04:02:09.800Z,99.90
2022-08-28T04:04:37.383Z,99.90
2022-08-28T04:07:05.746Z,99.90
2022-08-28T04:09:34.087Z,99.90
2022-08-28T04:12:01.730Z,99.90
2022-08-28T04:14:29.327Z,99.90
2022-08-28T04:17:01.298Z,99.90
2022-08-28T04:19:25.272Z,99.90
2022-08-28T04:21:52.864Z,99.90
2022-08-28T04:24:20.438Z,99.90
2022-08-28T04:26:48.022Z,99.90
2022-08-28T04:29:15.616Z,99.90
2022-08-28T04:31:43.231Z,99.90
2022-08-28T04:34:11.532Z,99.90
2022-08-28T04:36:39.136Z,99.90
2022-08-28T04:39:06.722Z,99.90
2022-08-28T04:41:34.294Z,99.90
2022-08-28T04:44:02.183Z,99.90
2022-08-28T04:46:30.999Z,99.90
2022-08-28T04:48:57.332Z,99.90
2022-08-28T04:51:25.695Z,99.90
2022-08-28T04:53:53.277Z,99.90
2022-08-28T04:56:21.611Z,99.90
2022-08-28T04:58:49.204Z,99.90
2022-08-28T05:01:17.630Z,99.90
2022-08-28T05:03:45.149Z,99.90
2022-08-28T05:06:13.511Z,99.90
2022-08-28T05:08:41.854Z,99.90
2022-08-28T05:11:12.224Z,99.90
2022-08-28T05:13:40.626Z,99.90
2022-08-28T05:16:08.238Z,99.90
2022-08-28T05:18:35.795Z,99.90
2022-08-28T05:21:03.376Z,99.90
2022-08-28T05:23:31.719Z,99.90
2022-08-28T05:25:59.293Z,99.90
2022-08-28T05:28:26.926Z,99.90
2022-08-28T05:30:54.512Z,99.90
2022-08-28T05:33:22.076Z,99.90
2022-08-28T05:35:49.648Z,99.90
2022-08-28T05:38:17.983Z,99.90
2022-08-28T05:40:45.565Z,99.90
2022-08-28T05:43:14.143Z,99.90
2022-08-28T05:45:41.774Z,99.90
2022-08-28T05:48:09.370Z,99.90
2022-08-28T05:50:37.700Z,99.90
2022-08-28T05:53:05.280Z,99.90
2022-08-28T05:55:32.867Z,99.90
2022-08-28T05:58:00.477Z,99.90
2022-08-28T06:00:28.052Z,99.90
2022-08-28T06:02:55.636Z,99.90
2022-08-28T06:05:23.259Z,99.90
2022-08-28T06:07:50.833Z,99.90
2022-08-28T06:10:18.411Z,99.90
2022-08-28T06:12:46.049Z,99.90
2022-08-28T06:15:13.642Z,99.90
2022-08-28T06:17:41.207Z,99.90
2022-08-28T06:20:09.016Z,99.90
2022-08-28T06:22:36.591Z,99.90
2022-08-28T06:25:07.798Z,99.90
2022-08-28T06:27:31.778Z,99.90
2022-08-28T06:30:00.128Z,99.90
2022-08-28T06:32:27.742Z,99.90
2022-08-28T06:34:55.303Z,99.90
2022-08-28T06:37:22.878Z,99.90
2022-08-28T06:39:50.450Z,99.90
2022-08-28T06:42:18.067Z,99.90
2022-08-28T06:44:45.649Z,99.90
2022-08-28T06:47:13.212Z,99.90
2022-08-28T06:49:40.835Z,99.90
2022-08-28T06:52:09.184Z,99.90
2022-08-28T06:54:36.767Z,99.90
2022-08-28T06:57:05.150Z,99.90
2022-08-28T06:59:33.491Z,99.90
2022-08-28T07:02:01.110Z,99.90
2022-08-28T07:04:28.688Z,99.90
2022-08-28T07:06:56.274Z,99.90
2022-08-28T07:09:23.837Z,99.90
2022-08-28T07:11:51.450Z,99.90
2022-08-28T07:14:19.025Z,99.90
2022-08-28T07:16:46.601Z,99.90
2022-08-28T07:19:14.212Z,99.90
2022-08-28T07:21:42.559Z,99.90
2022-08-28T07:24:10.129Z,99.90
2022-08-28T07:26:37.752Z,99.90
2022-08-28T07:29:10.436Z,99.90
2022-08-28T07:31:32.998Z,99.90
2022-08-28T07:34:01.302Z,99.90
2022-08-28T07:36:30.188Z,99.90
2022-08-28T07:38:57.238Z,99.90
2022-08-28T07:41:26.515Z,99.90
2022-08-28T07:44:12.383Z,99.90
2022-08-28T07:46:40.008Z,99.90
2022-08-28T07:49:07.582Z,99.30
2022-08-28T07:51:35.140Z,98.30
2022-08-28T07:54:03.039Z,97.90
2022-08-28T07:56:30.614Z,97.70
2022-08-28T07:58:58.187Z,97.50
2022-08-28T08:01:26.593Z,97.50
2022-08-28T08:03:57.643Z,97.30
2022-08-28T08:06:22.465Z,97.30
2022-08-28T08:08:50.079Z,97.20
2022-08-28T08:11:17.674Z,97.10
2022-08-28T08:13:45.246Z,96.60
2022-08-28T08:16:12.877Z,96.50
2022-08-28T08:18:41.183Z,96.40
2022-08-28T08:21:08.757Z,96.40
2022-08-28T08:23:36.370Z,96.20
2022-08-28T08:26:03.971Z,96.00
2022-08-28T08:28:31.568Z,95.50
2022-08-28T08:31:05.896Z,95.10
2022-08-28T08:33:33.432Z,95.10
2022-08-28T08:36:01.783Z,94.40
2022-08-28T08:38:29.396Z,94.10
2022-08-28T08:40:56.976Z,93.60
2022-08-28T08:43:24.544Z,93.30
2022-08-28T08:45:52.219Z,93.00
2022-08-28T08:48:29.460Z,92.30
2022-08-28T08:50:57.093Z,92.30
2022-08-28T08:53:33.484Z,92.20
2022-08-28T08:56:01.867Z,91.90
2022-08-28T08:58:32.670Z,91.90
2022-08-28T09:01:18.402Z,91.50
2022-08-28T09:04:04.927Z,90.70
2022-08-28T09:06:56.743Z,90.70
2022-08-28T09:09:30.303Z,90.40
2022-08-28T09:12:05.243Z,90.40
2022-08-28T09:14:38.527Z,90.30
2022-08-28T09:17:06.882Z,90.00
2022-08-28T09:19:35.045Z,89.90
2022-08-28T09:22:02.628Z,89.90
2022-08-28T09:24:33.963Z,87.70
2022-08-28T09:27:11.055Z,87.60
2022-08-28T09:29:37.816Z,87.70
2022-08-28T09:32:26.865Z,86.80
2022-08-28T09:35:13.296Z,85.90
2022-08-28T09:37:41.881Z,85.50
2022-08-28T09:40:18.104Z,84.90
2022-08-28T09:43:21.680Z,84.70
2022-08-28T09:45:51.875Z,84.80
2022-08-28T09:48:24.913Z,84.40
2022-08-28T09:50:55.252Z,83.20
2022-08-28T09:53:23.587Z,82.70
2022-08-28T09:56:06.939Z,82.70
2022-08-28T09:58:34.509Z,82.70
2022-08-28T10:01:02.845Z,81.80
2022-08-28T10:03:33.619Z,81.80
2022-08-28T10:06:04.896Z,81.20
2022-08-28T10:08:47.239Z,80.70
2022-08-28T10:11:30.163Z,80.00
2022-08-28T10:13:57.766Z,79.40
2022-08-28T10:16:40.002Z,79.60
2022-08-28T10:19:13.788Z,78.20
2022-08-28T10:21:44.022Z,76.90
2022-08-28T10:24:31.081Z,76.60
2022-08-28T10:27:13.710Z,76.40
2022-08-28T10:29:50.840Z,74.20
2022-08-28T10:32:23.814Z,74.10
2022-08-28T10:34:53.820Z,73.80
2022-08-28T10:37:33.398Z,73.20
2022-08-28T10:40:01.023Z,72.70
2022-08-28T10:42:35.969Z,72.40
2022-08-28T10:45:07.964Z,72.50
2022-08-28T10:47:35.548Z,71.50
2022-08-28T10:50:03.122Z,71.10
2022-08-28T10:52:36.980Z,70.50
2022-08-28T10:55:22.557Z,70.40
2022-08-28T10:57:52.637Z,69.60
2022-08-28T11:00:20.212Z,69.00
2022-08-28T11:02:53.702Z,68.70
2022-08-28T11:05:27.848Z,68.30
2022-08-28T11:07:58.090Z,68.20
2022-08-28T11:10:37.245Z,67.90
2022-08-28T11:13:05.798Z,68.40
2022-08-28T11:15:37.027Z,67.60
2022-08-28T11:18:00.989Z,67.30
2022-08-28T11:20:28.581Z,67.20
2022-08-28T11:22:56.157Z,66.30
2022-08-28T11:25:26.326Z,66.10
2022-08-28T11:28:12.788Z,66.30
2022-08-28T11:30:41.210Z,66.30
2022-08-28T11:33:08.831Z,66.20
2022-08-28T11:35:38.897Z,66.20
2022-08-28T11:38:06.531Z,66.70
2022-08-28T11:40:34.138Z,66.40
2022-08-28T11:43:16.950Z,65.60
2022-08-28T11:45:46.599Z,65.50
2022-08-28T11:48:23.748Z,65.40
2022-08-28T11:51:12.747Z,65.20
2022-08-28T11:54:05.237Z,64.10
2022-08-28T11:56:50.881Z,64.10
2022-08-28T11:59:42.575Z,64.00
2022-08-28T12:02:34.721Z,63.50
2022-08-28T12:05:02.566Z,62.90
2022-08-28T12:07:36.205Z,62.40
2022-08-28T12:10:05.342Z,62.00
2022-08-28T12:12:47.567Z,61.90
2022-08-28T12:15:30.487Z,61.90
2022-08-28T12:17:58.110Z,61.40
2022-08-28T12:20:25.682Z,61.40
2022-08-28T12:22:53.259Z,60.80
2022-08-28T12:25:23.668Z,60.70
2022-08-28T12:27:51.247Z,61.00
2022-08-28T12:30:18.830Z,60.40
2022-08-28T12:32:47.211Z,60.50
2022-08-28T12:35:21.344Z,60.20
2022-08-28T12:37:54.853Z,60.10
2022-08-28T12:40:22.491Z,59.80
2022-08-28T12:42:55.205Z,60.10
2022-08-28T12:45:24.654Z,59.50
2022-08-28T12:47:52.229Z,59.50
2022-08-28T12:50:32.182Z,58.40
2022-08-28T12:53:00.520Z,58.20
2022-08-28T12:55:28.092Z,58.20
2022-08-28T12:57:55.715Z,58.10
2022-08-28T13:00:23.358Z,58.60
2022-08-28T13:02:51.057Z,57.60
2022-08-28T13:05:36.476Z,57.30
2022-08-28T13:08:10.401Z,58.20
2022-08-28T13:10:41.474Z,58.10
2022-08-28T13:13:11.783Z,58.10
2022-08-28T13:15:54.443Z,58.40
2022-08-28T13:18:42.888Z,58.40
2022-08-28T13:21:31.736Z,58.40
2022-08-28T13:23:47.046Z,57.70
2022-08-28T13:26:15.388Z,57.10
2022-08-28T13:28:42.991Z,57.10
2022-08-28T13:31:26.182Z,56.70
2022-08-28T13:34:02.756Z,56.70
2022-08-28T13:36:30.330Z,56.70
2022-08-28T13:38:58.672Z,55.60
2022-08-28T13:41:26.359Z,55.50
2022-08-28T13:43:53.879Z,55.10
2022-08-28T13:46:22.700Z,54.30
2022-08-28T13:48:50.047Z,54.00
2022-08-28T13:51:20.884Z,53.50
2022-08-28T13:53:45.192Z,53.10
2022-08-28T13:56:12.815Z,52.80
2022-08-28T13:58:40.392Z,53.60
2022-08-28T14:01:08.061Z,53.20
2022-08-28T14:03:38.089Z,53.30
2022-08-28T14:06:14.323Z,52.90
2022-08-28T14:08:41.893Z,52.70
2022-08-28T14:11:12.939Z,52.90
2022-08-28T14:13:37.100Z,52.80
2022-08-28T14:16:04.743Z,52.50
2022-08-28T14:18:32.298Z,52.70
2022-08-28T14:20:59.871Z,52.70
2022-08-28T14:23:27.435Z,52.70
2022-08-28T14:25:55.039Z,53.10
2022-08-28T14:28:23.390Z,52.50
2022-08-28T14:30:50.956Z,52.50
2022-08-28T14:33:18.580Z,52.20
2022-08-28T14:35:46.164Z,52.00
2022-08-28T14:38:13.747Z,51.30
2022-08-28T14:40:41.394Z,51.20
2022-08-28T14:43:08.954Z,51.40
2022-08-28T14:45:42.542Z,51.70
2022-08-28T14:48:10.120Z,51.70
2022-08-28T14:50:43.818Z,51.10
2022-08-28T14:53:11.391Z,51.00
2022-08-28T14:55:43.028Z,50.90
2022-08-28T14:58:10.602Z,51.00
2022-08-28T15:00:41.486Z,49.70
2022-08-28T15:03:10.151Z,50.10
2022-08-28T15:05:38.484Z,50.30
2022-08-28T15:08:08.736Z,50.20
2022-08-28T15:10:39.656Z,50.30
2022-08-28T15:13:07.753Z,50.30
2022-08-28T15:15:35.583Z,50.30
2022-08-28T15:18:03.196Z,50.30
2022-08-28T15:20:30.770Z,50.40
2022-08-28T15:22:58.344Z,50.20
2022-08-28T15:25:25.977Z,50.10
2022-08-28T15:27:53.561Z,50.30
2022-08-28T15:30:21.145Z,50.60
2022-08-28T15:32:48.768Z,51.00
2022-08-28T15:35:16.332Z,50.40
2022-08-28T15:37:43.907Z,49.90
2022-08-28T15:40:30.002Z,49.20
2022-08-28T15:42:57.487Z,48.90
2022-08-28T15:45:25.862Z,48.80
2022-08-28T15:47:53.442Z,48.40
2022-08-28T15:50:21.773Z,47.80
2022-08-28T15:52:49.585Z,47.80
2022-08-28T15:55:18.351Z,48.30
2022-08-28T15:57:45.935Z,48.30
2022-08-28T16:00:13.666Z,48.50
2022-08-28T16:02:41.586Z,48.70
2022-08-28T16:05:09.169Z,48.90
2022-08-28T16:07:36.753Z,49.30
2022-08-28T16:10:04.357Z,49.30
2022-08-28T16:12:31.940Z,49.00
2022-08-28T16:14:59.507Z,48.30
2022-08-28T16:17:27.404Z,48.00
2022-08-28T16:19:54.978Z,48.00
2022-08-28T16:22:23.335Z,47.90
2022-08-28T16:24:50.943Z,47.80
2022-08-28T16:27:18.517Z,48.00
2022-08-28T16:29:46.091Z,47.90
2022-08-28T16:32:13.713Z,47.70
2022-08-28T16:34:44.883Z,47.40
2022-08-28T16:37:09.622Z,47.30
2022-08-28T16:39:37.245Z,46.60
2022-08-28T16:42:04.820Z,46.10
2022-08-28T16:44:32.393Z,45.60
2022-08-28T16:47:00.045Z,45.30
2022-08-28T16:49:27.561Z,45.30
2022-08-28T16:51:55.129Z,45.00
2022-08-28T16:54:22.753Z,45.20
2022-08-28T16:56:51.104Z,45.70
2022-08-28T16:59:18.669Z,45.60
2022-08-28T17:01:46.323Z,45.80
2022-08-28T17:04:13.838Z,45.90
2022-08-28T17:06:41.402Z,45.40
2022-08-28T17:09:09.005Z,45.30
2022-08-28T17:11:36.597Z,45.40
2022-08-28T17:14:04.941Z,45.70
2022-08-28T17:16:32.603Z,45.70
2022-08-28T17:19:00.129Z,45.80
2022-08-28T17:21:45.809Z,46.10
2022-08-28T17:24:13.377Z,46.30
2022-08-28T17:26:40.949Z,46.60
2022-08-28T17:29:08.562Z,47.00
2022-08-28T17:31:36.216Z,47.20
2022-08-28T17:34:03.727Z,46.90
2022-08-28T17:36:34.088Z,46.50
2022-08-28T17:38:59.652Z,46.70
2022-08-28T17:41:27.233Z,46.60
2022-08-28T17:43:54.851Z,46.60
2022-08-28T17:46:22.458Z,46.70
2022-08-28T17:48:55.835Z,46.60
2022-08-28T17:51:17.927Z,46.50
2022-08-28T17:53:46.367Z,46.40
2022-08-28T17:56:14.167Z,46.40
2022-08-28T17:58:42.697Z,46.50
2022-08-28T18:01:10.507Z,46.40
2022-08-28T18:03:39.968Z,46.70
2022-08-28T18:06:06.858Z,46.70
2022-08-28T18:08:35.198Z,47.30
2022-08-28T18:11:02.773Z,47.20
2022-08-28T18:13:30.377Z,47.50
2022-08-28T18:15:58.068Z,47.40
2022-08-28T18:18:26.958Z,47.50
2022-08-28T18:20:53.128Z,47.80
2022-08-28T18:23:21.482Z,48.30
2022-08-28T18:25:50.953Z,48.20
2022-08-28T18:28:20.657Z,48.40
2022-08-28T18:30:44.212Z,48.30
2022-08-28T18:33:14.553Z,48.20
2022-08-28T18:35:45.172Z,48.50
2022-08-28T18:38:09.721Z,48.80
2022-08-28T18:40:38.085Z,49.20
2022-08-28T18:43:06.169Z,49.20
2022-08-28T18:45:34.520Z,49.80
2022-08-28T18:48:02.097Z,49.50
2022-08-28T18:50:29.707Z,49.40
2022-08-28T18:52:57.281Z,49.70
2022-08-28T18:55:24.865Z,50.00
2022-08-28T18:57:52.479Z,50.20
2022-08-28T19:00:20.072Z,50.40
2022-08-28T19:02:47.732Z,50.70
2022-08-28T19:05:15.260Z,51.00
2022-08-28T19:07:42.835Z,51.30
2022-08-28T19:10:28.040Z,51.60
2022-08-28T19:12:38.034Z,51.70
2022-08-28T19:15:05.685Z,52.00
2022-08-28T19:17:33.259Z,52.20
2022-08-28T19:20:00.873Z,52.50
2022-08-28T19:22:28.564Z,52.70
2022-08-28T19:24:56.788Z,53.20
2022-08-28T19:27:24.406Z,53.10
2022-08-28T19:29:51.976Z,53.30
2022-08-28T19:32:21.477Z,53.60
2022-08-28T19:34:47.411Z,53.70
2022-08-28T19:37:14.985Z,53.90
2022-08-28T19:39:42.570Z,54.00
2022-08-28T19:42:10.193Z,54.20
2022-08-28T19:44:40.512Z,54.40
2022-08-28T19:47:08.078Z,54.50
2022-08-28T19:49:35.691Z,54.70
2022-08-28T19:52:04.032Z,55.50
2022-08-28T19:54:31.606Z,55.10
2022-08-28T19:56:59.211Z,55.20
2022-08-28T19:59:27.309Z,55.30
2022-08-28T20:01:54.406Z,55.30
2022-08-28T20:04:22.261Z,55.00
2022-08-28T20:06:49.831Z,55.30
2022-08-28T20:09:18.174Z,55.20
2022-08-28T20:11:45.767Z,55.50
2022-08-28T20:14:13.351Z,55.40
2022-08-28T20:16:40.935Z,55.50
2022-08-28T20:19:08.549Z,55.70
2022-08-28T20:21:38.244Z,56.60
2022-08-28T20:24:04.504Z,56.10
2022-08-28T20:26:32.895Z,56.50
2022-08-28T20:29:00.470Z,56.40
2022-08-28T20:31:28.095Z,56.60
2022-08-28T20:33:55.667Z,56.80
2022-08-28T20:36:23.251Z,57.00
2022-08-28T20:38:50.827Z,56.90
2022-08-28T20:41:18.448Z,56.70
2022-08-28T20:43:46.013Z,56.90
2022-08-28T20:46:13.610Z,57.00
2022-08-28T20:48:41.229Z,57.10
2022-08-28T20:51:08.803Z,57.30
2022-08-28T20:53:37.736Z,57.50
2022-08-28T20:56:04.375Z,57.70
2022-08-28T20:58:31.948Z,57.80
2022-08-28T21:00:59.553Z,58.00
2022-08-28T21:03:28.471Z,58.20
2022-08-28T21:05:55.459Z,58.20
2022-08-28T21:08:23.801Z,58.30
2022-08-28T21:10:51.682Z,58.30
2022-08-28T21:13:19.244Z,58.50
2022-08-28T21:15:46.810Z,58.40
2022-08-28T21:18:14.496Z,58.00
2022-08-28T21:20:41.996Z,57.80
2022-08-28T21:23:09.610Z,58.00
2022-08-28T21:25:37.243Z,58.30
2022-08-28T21:28:04.837Z,58.50
2022-08-28T21:30:32.453Z,58.60
2022-08-28T21:33:00.026Z,58.50
2022-08-28T21:35:27.589Z,58.60
2022-08-28T21:37:55.164Z,58.40
2022-08-28T21:40:23.834Z,58.50
2022-08-28T21:42:51.384Z,58.40
2022-08-28T21:45:18.964Z,59.40
2022-08-28T21:47:47.376Z,59.40
2022-08-28T21:50:14.950Z,59.40
2022-08-28T21:52:42.523Z,59.60
2022-08-28T21:55:11.269Z,59.90
2022-08-28T21:57:38.852Z,60.20
2022-08-28T22:00:09.678Z,60.60
2022-08-28T22:02:38.081Z,61.40
2022-08-28T22:05:06.387Z,61.70
2022-08-28T22:07:33.945Z,61.70
2022-08-28T22:10:01.570Z,61.90
2022-08-28T22:12:29.191Z,62.10
2022-08-28T22:14:56.726Z,61.60
2022-08-28T22:17:24.454Z,61.80
2022-08-28T22:19:51.963Z,62.00
2022-08-28T22:22:38.412Z,62.60
2022-08-28T22:25:06.124Z,62.60
2022-08-28T22:27:34.496Z,63.30
2022-08-28T22:30:02.886Z,63.60
2022-08-28T22:32:31.254Z,63.80
2022-08-28T22:34:58.815Z,63.80
2022-08-28T22:37:26.417Z,64.00
2022-08-28T22:39:54.060Z,63.50
2022-08-28T22:42:21.576Z,64.20
2022-08-28T22:44:49.188Z,64.40
2022-08-28T22:47:18.862Z,64.50
2022-08-28T22:49:44.356Z,64.50
2022-08-28T22:52:11.938Z,64.50
2022-08-28T22:54:40.273Z,64.80
2022-08-28T22:57:07.847Z,64.80
2022-08-28T22:59:35.490Z,64.80
2022-08-28T23:02:03.066Z,64.80
2022-08-28T23:04:30.697Z,64.60
2022-08-28T23:06:59.041Z,63.90
2022-08-28T23:09:27.383Z,63.50
2022-08-28T23:11:54.955Z,63.40
2022-08-28T23:14:22.605Z,63.60
2022-08-28T23:16:50.201Z,63.70
2022-08-28T23:19:17.776Z,63.90
2022-08-28T23:21:45.685Z,64.00
2022-08-28T23:24:13.259Z,64.20
2022-08-28T23:26:40.825Z,64.30
2022-08-28T23:29:08.467Z,64.40
2022-08-28T23:31:36.060Z,64.40
2022-08-28T23:34:03.614Z,64.50
2022-08-28T23:36:31.554Z,64.60
2022-08-28T23:38:59.127Z,64.70
2022-08-28T23:41:26.711Z,64.60
2022-08-28T23:43:55.241Z,64.40
2022-08-28T23:46:22.851Z,64.40
2022-08-28T23:48:50.390Z,64.60
2022-08-28T23:51:18.001Z,64.80
2022-08-28T23:53:45.596Z,65.10
2022-08-28T23:56:13.171Z,65.30
2022-08-28T23:58:43.276Z,65.50
